createdAt,value
2019-04-25T04:01:01.413Z,99.99
2019-04-25T04:02:01.300Z,99.99
2019-04-25T04:03:54.490Z,99.99
2019-04-25T04:04:54.361Z,99.99
2019-04-25T04:06:47.046Z,99.99
2019-04-25T04:07:46.933Z,99.99
2019-04-25T04:09:39.643Z,99.99
2019-04-25T04:10:39.495Z,99.99
2019-04-25T04:12:32.176Z,99.99
2019-04-25T04:13:32.081Z,99.99
2019-04-25T04:15:25.150Z,99.99
2019-04-25T04:16:24.639Z,99.99
2019-04-25T04:18:17.445Z,99.99
2019-04-25T04:19:17.181Z,99.99
2019-04-25T04:21:09.919Z,99.99
2019-04-25T04:22:09.749Z,99.99
2019-04-25T04:24:04.004Z,99.99
2019-04-25T04:25:03.757Z,99.99
2019-04-25T04:27:03.455Z,99.99
2019-04-25T04:27:54.916Z,99.99
2019-04-25T04:29:47.589Z,99.99
2019-04-25T04:30:47.472Z,99.99
2019-04-25T04:32:40.171Z,99.99
2019-04-25T04:33:40.068Z,99.99
2019-04-25T04:35:33.516Z,99.99
2019-04-25T04:36:33.836Z,99.99
2019-04-25T04:38:25.287Z,99.99
2019-04-25T04:39:25.158Z,99.99
2019-04-25T04:41:17.876Z,99.99
2019-04-25T04:42:17.941Z,99.99
2019-04-25T04:44:10.485Z,99.99
2019-04-25T04:45:10.364Z,99.99
2019-04-25T04:47:04.005Z,99.99
2019-04-25T04:48:03.268Z,99.99
2019-04-25T04:49:55.614Z,99.99
2019-04-25T04:50:55.482Z,99.99
2019-04-25T04:52:48.162Z,99.99
2019-04-25T04:53:48.040Z,99.99
2019-04-25T04:55:40.748Z,99.99
2019-04-25T04:56:40.620Z,99.99
2019-04-25T04:58:34.320Z,99.99
2019-04-25T04:59:33.735Z,99.99
2019-04-25T05:01:25.884Z,99.99
2019-04-25T05:02:25.751Z,99.99
2019-04-25T05:04:19.071Z,99.99
2019-04-25T05:05:19.111Z,99.99
2019-04-25T05:07:11.106Z,99.99
2019-04-25T05:08:11.093Z,99.99
2019-04-25T05:10:03.557Z,99.99
2019-04-25T05:11:04.072Z,99.99
2019-04-25T05:12:56.139Z,99.99
2019-04-25T05:13:56.021Z,99.99
2019-04-25T05:15:48.672Z,99.99
2019-04-25T05:16:49.594Z,99.99
2019-04-25T05:18:41.253Z,99.99
2019-04-25T05:19:41.130Z,99.99
2019-04-25T05:21:33.796Z,99.99
2019-04-25T05:22:33.691Z,99.99
2019-04-25T05:24:26.545Z,99.99
2019-04-25T05:25:26.265Z,99.99
2019-04-25T05:27:32.968Z,99.04
2019-04-25T05:28:19.379Z,99.89
2019-04-25T05:30:11.515Z,99.99
2019-04-25T05:31:11.385Z,98.85
2019-04-25T05:33:04.083Z,99.99
2019-04-25T05:34:03.950Z,98.65
2019-04-25T05:35:56.630Z,98.27
2019-04-25T05:36:56.505Z,97.27
2019-04-25T05:38:49.175Z,97.85
2019-04-25T05:39:49.068Z,96.75
2019-04-25T05:41:41.754Z,97.08
2019-04-25T05:42:41.630Z,96.70
2019-04-25T05:44:34.413Z,95.94
2019-04-25T05:45:34.215Z,95.56
2019-04-25T05:47:27.212Z,95.08
2019-04-25T05:48:26.864Z,95.46
2019-04-25T05:50:19.911Z,95.94
2019-04-25T05:51:19.574Z,95.65
2019-04-25T05:53:12.098Z,95.27
2019-04-25T05:54:11.973Z,95.94
2019-04-25T05:56:04.661Z,93.93
2019-04-25T05:57:04.547Z,93.74
2019-04-25T05:58:57.243Z,93.22
2019-04-25T05:59:57.113Z,92.46
2019-04-25T06:01:49.795Z,92.65
2019-04-25T06:02:49.679Z,91.88
2019-04-25T06:04:43.588Z,89.88
2019-04-25T06:05:43.318Z,90.31
2019-04-25T06:07:34.921Z,89.64
2019-04-25T06:08:34.805Z,89.25
2019-04-25T06:10:27.842Z,87.35
2019-04-25T06:11:28.072Z,87.82
2019-04-25T06:13:20.043Z,85.67
2019-04-25T06:14:19.983Z,85.86
2019-04-25T06:16:13.407Z,84.72
2019-04-25T06:17:13.708Z,85.10
2019-04-25T06:19:13.610Z,85.67
2019-04-25T06:20:06.241Z,84.81
2019-04-25T06:21:57.774Z,85.00
2019-04-25T06:22:57.642Z,85.58
2019-04-25T06:24:50.327Z,84.05
2019-04-25T06:25:50.219Z,83.95
2019-04-25T06:27:43.617Z,83.86
2019-04-25T06:28:51.236Z,84.72
2019-04-25T06:30:35.471Z,83.57
2019-04-25T06:31:35.362Z,84.05
2019-04-25T06:33:29.018Z,84.19
2019-04-25T06:34:29.757Z,83.95
2019-04-25T06:36:21.090Z,83.51
2019-04-25T06:37:21.303Z,82.18
2019-04-25T06:39:14.209Z,82.18
2019-04-25T06:40:13.727Z,81.79
2019-04-25T06:42:05.760Z,80.98
2019-04-25T06:43:05.644Z,80.11
2019-04-25T06:44:58.339Z,76.65
2019-04-25T06:45:58.221Z,72.78
2019-04-25T06:47:50.898Z,60.39
2019-04-25T06:48:50.793Z,56.05
2019-04-25T06:50:43.850Z,50.96
2019-04-25T06:51:43.993Z,48.95
2019-04-25T06:53:36.080Z,46.20
2019-04-25T06:54:35.972Z,44.87
2019-04-25T06:56:28.689Z,43.77
2019-04-25T06:57:29.376Z,42.71
2019-04-25T06:59:23.003Z,41.45
2019-04-25T07:00:21.733Z,41.35
2019-04-25T07:02:14.076Z,40.79
2019-04-25T07:03:13.940Z,40.31
2019-04-25T07:05:06.462Z,40.01
2019-04-25T07:06:06.363Z,39.61
2019-04-25T07:07:59.083Z,40.00
2019-04-25T07:08:58.965Z,40.69
2019-04-25T07:10:51.661Z,39.20
2019-04-25T07:11:51.569Z,38.04
2019-04-25T07:13:44.285Z,37.47
2019-04-25T07:14:44.178Z,36.68
2019-04-25T07:16:36.982Z,37.51
2019-04-25T07:17:37.093Z,38.00
2019-04-25T07:19:29.936Z,38.35
2019-04-25T07:20:30.224Z,39.57
2019-04-25T07:22:23.826Z,40.05
2019-04-25T07:23:23.612Z,40.61
2019-04-25T07:25:14.817Z,41.46
2019-04-25T07:26:14.695Z,42.68
2019-04-25T07:28:07.397Z,41.73
2019-04-25T07:29:07.300Z,43.33
2019-04-25T07:31:00.019Z,43.89
2019-04-25T07:31:59.909Z,46.37
2019-04-25T07:33:53.269Z,46.83
2019-04-25T07:34:53.613Z,46.64
2019-04-25T07:36:45.690Z,45.03
2019-04-25T07:37:45.101Z,45.60
2019-04-25T07:39:37.801Z,46.50
2019-04-25T07:40:37.700Z,47.56
2019-04-25T07:42:30.416Z,45.43
2019-04-25T07:43:30.299Z,44.76
2019-04-25T07:45:23.942Z,42.41
2019-04-25T07:46:23.395Z,41.61
2019-04-25T07:48:15.615Z,40.03
2019-04-25T07:49:15.496Z,39.86
2019-04-25T07:51:08.194Z,39.64
2019-04-25T07:52:08.093Z,39.36
2019-04-25T07:54:00.810Z,39.55
2019-04-25T07:55:00.685Z,39.24
2019-04-25T07:56:54.948Z,40.71
2019-04-25T07:57:53.404Z,40.15
2019-04-25T07:59:46.003Z,39.26
2019-04-25T08:00:45.886Z,39.06
2019-04-25T08:02:39.532Z,40.40
2019-04-25T08:03:38.507Z,40.69
2019-04-25T08:05:34.147Z,39.01
2019-04-25T08:06:33.378Z,39.18
2019-04-25T08:08:24.797Z,39.14
2019-04-25T08:09:24.705Z,41.05
2019-04-25T08:11:17.417Z,43.14
2019-04-25T08:12:17.296Z,44.93
2019-04-25T08:14:09.988Z,46.62
2019-04-25T08:15:09.891Z,47.39
2019-04-25T08:17:03.664Z,46.62
2019-04-25T08:18:03.948Z,47.19
2019-04-25T08:19:55.181Z,46.91
2019-04-25T08:20:55.077Z,48.13
2019-04-25T08:22:55.692Z,47.27
2019-04-25T08:23:47.664Z,47.46
2019-04-25T08:25:40.675Z,47.10
2019-04-25T08:26:40.266Z,46.81
2019-04-25T08:28:34.472Z,46.88
2019-04-25T08:29:36.422Z,47.36
2019-04-25T08:31:25.544Z,47.92
2019-04-25T08:32:25.454Z,48.66
2019-04-25T08:34:18.170Z,49.05
2019-04-25T08:35:18.040Z,48.83
2019-04-25T08:37:17.991Z,49.15
2019-04-25T08:38:10.634Z,49.15
2019-04-25T08:40:03.986Z,49.24
2019-04-25T08:41:04.126Z,48.76
2019-04-25T08:42:56.417Z,48.69
2019-04-25T08:43:56.314Z,48.33
2019-04-25T08:45:49.025Z,46.69
2019-04-25T08:46:48.968Z,46.23
2019-04-25T08:48:42.157Z,46.52
2019-04-25T08:49:42.972Z,45.36
2019-04-25T08:51:34.971Z,45.36
2019-04-25T08:52:35.455Z,45.46
2019-04-25T08:54:26.798Z,46.42
2019-04-25T08:55:26.677Z,45.46
2019-04-25T08:57:19.385Z,44.89
2019-04-25T08:58:19.271Z,45.15
2019-04-25T09:00:11.957Z,46.04
2019-04-25T09:01:11.853Z,45.56
2019-04-25T09:03:05.989Z,45.94
2019-04-25T09:04:05.168Z,45.63
2019-04-25T09:05:57.176Z,46.33
2019-04-25T09:06:57.034Z,46.42
2019-04-25T09:08:49.738Z,45.48
2019-04-25T09:09:49.631Z,45.29
2019-04-25T09:11:42.312Z,45.36
2019-04-25T09:12:43.914Z,46.14
2019-04-25T09:14:36.279Z,46.21
2019-04-25T09:15:36.391Z,46.14
2019-04-25T09:17:27.494Z,45.83
2019-04-25T09:18:27.394Z,46.31
2019-04-25T09:20:20.108Z,46.01
2019-04-25T09:21:19.978Z,46.01
2019-04-25T09:23:13.657Z,46.21
2019-04-25T09:24:13.408Z,46.11
2019-04-25T09:26:05.687Z,46.50
2019-04-25T09:27:05.164Z,46.50
2019-04-25T09:28:57.849Z,46.77
2019-04-25T09:29:57.752Z,47.34
2019-04-25T09:31:50.457Z,47.63
2019-04-25T09:32:50.336Z,47.44
2019-04-25T09:34:43.743Z,47.82
2019-04-25T09:35:44.849Z,48.11
2019-04-25T09:37:36.658Z,47.92
2019-04-25T09:38:36.005Z,47.82
2019-04-25T09:40:28.226Z,47.44
2019-04-25T09:41:28.122Z,47.53
2019-04-25T09:43:20.822Z,48.95
2019-04-25T09:44:20.709Z,48.85
2019-04-25T09:46:13.397Z,49.43
2019-04-25T09:47:13.661Z,48.85
2019-04-25T09:49:06.023Z,48.21
2019-04-25T09:50:05.895Z,48.40
2019-04-25T09:51:58.573Z,47.85
2019-04-25T09:52:58.477Z,47.94
2019-04-25T09:54:51.183Z,47.94
2019-04-25T09:55:51.064Z,47.65
2019-04-25T09:57:44.877Z,47.39
2019-04-25T09:58:44.342Z,47.77
2019-04-25T10:00:36.557Z,47.03
2019-04-25T10:01:36.530Z,47.12
2019-04-25T10:03:28.946Z,46.25
2019-04-25T10:04:28.841Z,46.25
2019-04-25T10:06:23.286Z,46.35
2019-04-25T10:07:21.433Z,46.18
2019-04-25T10:09:15.710Z,46.23
2019-04-25T10:10:14.019Z,47.29
2019-04-25T10:12:06.726Z,47.49
2019-04-25T10:13:06.741Z,47.75
2019-04-25T10:14:59.296Z,47.46
2019-04-25T10:15:59.198Z,48.23
2019-04-25T10:17:51.908Z,48.52
2019-04-25T10:18:53.007Z,48.64
2019-04-25T10:20:45.167Z,47.70
2019-04-25T10:21:45.185Z,47.80
2019-04-25T10:23:37.444Z,47.97
2019-04-25T10:24:37.361Z,48.44
2019-04-25T10:26:29.656Z,48.93
2019-04-25T10:27:29.558Z,49.10
2019-04-25T10:29:22.263Z,49.58
2019-04-25T10:30:24.228Z,50.25
2019-04-25T10:32:15.055Z,50.61
2019-04-25T10:33:14.760Z,50.90
2019-04-25T10:35:07.462Z,51.67
2019-04-25T10:36:07.343Z,51.55
2019-04-25T10:38:00.032Z,51.17
2019-04-25T10:39:07.224Z,51.64
2019-04-25T10:40:53.643Z,51.17
2019-04-25T10:41:54.037Z,50.90
2019-04-25T10:43:46.087Z,51.48
2019-04-25T10:44:46.824Z,51.19
2019-04-25T10:46:37.826Z,51.29
2019-04-25T10:47:37.699Z,50.42
2019-04-25T10:49:30.397Z,50.15
2019-04-25T10:50:30.279Z,50.15
2019-04-25T10:52:23.350Z,49.12
2019-04-25T10:53:23.459Z,48.57
2019-04-25T10:55:15.556Z,47.60
2019-04-25T10:56:15.453Z,48.21
2019-04-25T10:58:08.168Z,47.31
2019-04-25T10:59:08.044Z,46.76
2019-04-25T11:01:00.735Z,46.47
2019-04-25T11:02:00.638Z,47.14
2019-04-25T11:03:54.414Z,47.24
2019-04-25T11:04:54.541Z,46.86
2019-04-25T11:06:45.912Z,47.41
2019-04-25T11:07:46.582Z,47.22
2019-04-25T11:09:38.522Z,47.63
2019-04-25T11:10:38.395Z,47.80
2019-04-25T11:12:31.090Z,47.53
2019-04-25T11:13:30.982Z,47.24
2019-04-25T11:15:23.696Z,46.18
2019-04-25T11:16:24.226Z,46.20
2019-04-25T11:18:16.250Z,45.60
2019-04-25T11:19:16.154Z,46.08
2019-04-25T11:21:08.856Z,45.60
2019-04-25T11:22:08.744Z,45.60
2019-04-25T11:24:01.426Z,45.31
2019-04-25T11:25:01.329Z,45.31
2019-04-25T11:26:55.235Z,44.76
2019-04-25T11:27:55.050Z,44.39
2019-04-25T11:29:47.172Z,44.10
2019-04-25T11:30:46.764Z,44.68
2019-04-25T11:32:39.236Z,44.78
2019-04-25T11:33:39.112Z,43.89
2019-04-25T11:35:31.807Z,44.18
2019-04-25T11:36:31.700Z,44.46
2019-04-25T11:38:24.403Z,44.27
2019-04-25T11:39:24.288Z,44.08
2019-04-25T11:41:17.006Z,44.66
2019-04-25T11:42:16.882Z,44.08
2019-04-25T11:44:09.567Z,44.06
2019-04-25T11:45:09.467Z,44.08
2019-04-25T11:47:03.862Z,44.08
2019-04-25T11:48:02.058Z,44.10
2019-04-25T11:49:55.775Z,44.20
2019-04-25T11:50:55.858Z,44.39
2019-04-25T11:52:47.356Z,44.01
2019-04-25T11:53:48.199Z,44.01
2019-04-25T11:55:39.928Z,43.91
2019-04-25T11:56:39.821Z,44.56
2019-04-25T11:58:32.546Z,46.20
2019-04-25T11:59:33.965Z,46.37
2019-04-25T12:01:25.090Z,45.41
2019-04-25T12:02:24.992Z,46.18
2019-04-25T12:04:17.701Z,45.03
2019-04-25T12:05:17.572Z,44.93
2019-04-25T12:07:10.297Z,44.66
2019-04-25T12:08:10.173Z,44.18
2019-04-25T12:10:03.756Z,43.91
2019-04-25T12:11:02.762Z,43.62
2019-04-25T12:12:55.583Z,42.94
2019-04-25T12:13:55.437Z,42.56
2019-04-25T12:15:48.069Z,41.40
2019-04-25T12:16:50.114Z,41.30
2019-04-25T12:18:40.654Z,41.88
2019-04-25T12:19:40.534Z,41.30
2019-04-25T12:21:34.038Z,41.67
2019-04-25T12:22:34.333Z,41.78
2019-04-25T12:24:26.330Z,42.08
2019-04-25T12:25:26.213Z,41.77
2019-04-25T12:27:18.905Z,41.48
2019-04-25T12:28:18.805Z,42.15
2019-04-25T12:30:11.502Z,41.57
2019-04-25T12:31:11.392Z,41.77
2019-04-25T12:33:04.077Z,41.40
2019-04-25T12:34:03.980Z,41.50
2019-04-25T12:35:56.691Z,40.84
2019-04-25T12:36:57.388Z,40.17
2019-04-25T12:38:49.254Z,40.45
2019-04-25T12:39:49.159Z,40.75
2019-04-25T12:41:41.879Z,40.07
2019-04-25T12:42:41.753Z,40.36
2019-04-25T12:44:34.445Z,39.86
2019-04-25T12:45:34.400Z,40.05
2019-04-25T12:47:27.045Z,39.59
2019-04-25T12:48:26.934Z,39.01
2019-04-25T12:50:19.623Z,38.64
2019-04-25T12:51:19.520Z,39.03
2019-04-25T12:53:13.806Z,40.09
2019-04-25T12:54:13.781Z,39.11
2019-04-25T12:56:04.831Z,39.69
2019-04-25T12:57:05.589Z,39.97
2019-04-25T12:58:57.439Z,39.59
2019-04-25T12:59:57.609Z,40.07
2019-04-25T13:01:50.006Z,39.49
2019-04-25T13:02:49.902Z,40.07
2019-04-25T13:04:44.006Z,41.03
2019-04-25T13:05:44.127Z,40.44
2019-04-25T13:07:35.187Z,40.72
2019-04-25T13:08:35.092Z,41.02
2019-04-25T13:10:27.807Z,39.86
2019-04-25T13:11:27.692Z,39.57
2019-04-25T13:13:20.373Z,39.97
2019-04-25T13:14:20.272Z,39.57
2019-04-25T13:16:13.235Z,40.63
2019-04-25T13:17:13.625Z,40.75
2019-04-25T13:19:14.813Z,39.78
2019-04-25T13:20:05.644Z,39.59
2019-04-25T13:21:58.161Z,39.95
2019-04-25T13:22:58.445Z,40.24
2019-04-25T13:24:50.726Z,39.47
2019-04-25T13:25:50.626Z,39.95
2019-04-25T13:27:44.530Z,39.87
2019-04-25T13:28:44.140Z,38.91
2019-04-25T13:30:35.895Z,39.78
2019-04-25T13:31:35.789Z,39.69
2019-04-25T13:33:28.505Z,39.49
2019-04-25T13:34:36.135Z,39.20
2019-04-25T13:36:21.077Z,39.22
2019-04-25T13:37:20.962Z,39.22
2019-04-25T13:39:15.085Z,38.91
2019-04-25T13:40:16.213Z,39.11
2019-04-25T13:42:06.744Z,39.29
2019-04-25T13:43:06.243Z,39.20
2019-04-25T13:44:58.835Z,39.59
2019-04-25T13:45:58.723Z,39.51
2019-04-25T13:47:51.413Z,38.91
2019-04-25T13:48:51.311Z,39.11
2019-04-25T13:50:44.405Z,38.93
2019-04-25T13:51:43.904Z,38.93
2019-04-25T13:53:36.587Z,38.64
2019-04-25T13:54:36.485Z,38.74
2019-04-25T13:56:29.185Z,39.04
2019-04-25T13:57:29.903Z,38.37
2019-04-25T13:59:21.826Z,38.18
2019-04-25T14:00:21.839Z,37.81
2019-04-25T14:02:14.364Z,38.00
2019-04-25T14:03:14.253Z,37.60
2019-04-25T14:05:06.950Z,38.16
2019-04-25T14:06:06.843Z,38.08
2019-04-25T14:07:59.548Z,38.37
2019-04-25T14:08:59.432Z,39.04
2019-04-25T14:10:52.115Z,38.08
2019-04-25T14:11:52.011Z,37.88
2019-04-25T14:13:44.728Z,38.58
2019-04-25T14:14:44.610Z,38.29
2019-04-25T14:16:37.319Z,37.42
2019-04-25T14:17:38.152Z,37.52
2019-04-25T14:19:29.905Z,36.74
2019-04-25T14:20:30.016Z,36.86
2019-04-25T14:22:23.335Z,35.78
2019-04-25T14:23:24.423Z,36.65
2019-04-25T14:25:15.092Z,36.34
2019-04-25T14:26:14.973Z,36.92
2019-04-25T14:28:07.659Z,37.23
2019-04-25T14:29:07.553Z,37.04
2019-04-25T14:31:00.265Z,36.07
2019-04-25T14:32:00.150Z,36.07
2019-04-25T14:33:52.879Z,36.47
2019-04-25T14:34:54.381Z,36.55
2019-04-25T14:36:45.452Z,35.89
2019-04-25T14:37:45.341Z,35.80
2019-04-25T14:39:38.030Z,35.62
2019-04-25T14:40:37.926Z,35.60
2019-04-25T14:42:30.733Z,35.70
2019-04-25T14:43:31.119Z,35.89
2019-04-25T14:45:23.215Z,35.42
2019-04-25T14:46:23.125Z,35.13
2019-04-25T14:48:15.825Z,35.52
2019-04-25T14:49:15.707Z,35.52
2019-04-25T14:51:10.738Z,35.33
2019-04-25T14:52:08.308Z,34.54
2019-04-25T14:54:01.017Z,35.80
2019-04-25T14:55:00.899Z,35.41
2019-04-25T14:56:53.590Z,35.60
2019-04-25T14:57:53.490Z,35.60
2019-04-25T14:59:46.201Z,35.70
2019-04-25T15:00:46.090Z,36.08
2019-04-25T15:02:38.784Z,35.68
2019-04-25T15:03:38.682Z,36.65
2019-04-25T15:05:31.390Z,36.36
2019-04-25T15:06:31.998Z,36.94
2019-04-25T15:08:24.930Z,37.52
2019-04-25T15:09:24.595Z,37.60
2019-04-25T15:11:16.574Z,37.40
2019-04-25T15:12:16.448Z,37.12
2019-04-25T15:14:09.137Z,37.70
2019-04-25T15:15:09.043Z,36.92
2019-04-25T15:17:01.753Z,37.32
2019-04-25T15:18:01.645Z,37.81
2019-04-25T15:19:54.317Z,37.04
2019-04-25T15:20:54.221Z,36.84
2019-04-25T15:22:46.931Z,36.28
2019-04-25T15:23:59.359Z,36.57
2019-04-25T15:25:39.503Z,36.10
2019-04-25T15:26:40.399Z,36.58
2019-04-25T15:28:32.115Z,35.91
2019-04-25T15:29:32.006Z,35.62
2019-04-25T15:31:25.526Z,36.40
2019-04-25T15:32:25.081Z,36.49
2019-04-25T15:34:17.322Z,36.98
2019-04-25T15:35:17.202Z,36.78
2019-04-25T15:37:09.893Z,36.88
2019-04-25T15:38:09.793Z,37.26
2019-04-25T15:40:02.505Z,37.24
2019-04-25T15:41:02.384Z,37.63
2019-04-25T15:42:55.072Z,37.54
2019-04-25T15:43:54.968Z,37.92
2019-04-25T15:45:47.673Z,38.21
2019-04-25T15:46:47.561Z,37.82
2019-04-25T15:48:40.250Z,38.02
2019-04-25T15:49:40.746Z,37.32
2019-04-25T15:51:32.868Z,37.82
2019-04-25T15:52:33.726Z,37.82
2019-04-25T15:54:26.468Z,37.13
2019-04-25T15:55:26.192Z,37.15
2019-04-25T15:57:18.074Z,36.74
2019-04-25T15:58:17.956Z,37.32
2019-04-25T16:00:10.642Z,37.62
2019-04-25T16:01:10.541Z,37.02
2019-04-25T16:03:03.259Z,37.30
2019-04-25T16:04:03.131Z,38.28
2019-04-25T16:05:55.829Z,37.88
2019-04-25T16:06:55.737Z,37.98
2019-04-25T16:08:48.454Z,37.79
2019-04-25T16:09:48.338Z,38.28
2019-04-25T16:11:41.022Z,38.18
2019-04-25T16:12:40.921Z,37.88
2019-04-25T16:14:33.639Z,37.70
2019-04-25T16:15:33.523Z,38.37
2019-04-25T16:17:27.128Z,37.88
2019-04-25T16:18:26.217Z,38.18
2019-04-25T16:20:18.823Z,37.88
2019-04-25T16:21:18.708Z,38.18
2019-04-25T16:23:11.401Z,38.76
2019-04-25T16:24:11.300Z,38.83
2019-04-25T16:26:04.007Z,38.93
2019-04-25T16:27:03.889Z,39.12
2019-04-25T16:28:56.574Z,39.12
2019-04-25T16:29:56.473Z,39.04
2019-04-25T16:31:49.182Z,38.95
2019-04-25T16:32:49.065Z,38.78
2019-04-25T16:34:42.066Z,38.78
2019-04-25T16:35:41.654Z,38.87
2019-04-25T16:37:34.594Z,38.97
2019-04-25T16:38:34.242Z,39.06
2019-04-25T16:40:27.503Z,39.94
2019-04-25T16:41:27.591Z,40.52
2019-04-25T16:43:19.545Z,40.69
2019-04-25T16:44:19.420Z,40.78
2019-04-25T16:46:12.629Z,41.66
2019-04-25T16:47:12.515Z,41.15
2019-04-25T16:49:05.203Z,41.73
2019-04-25T16:50:05.105Z,41.83
2019-04-25T16:51:57.819Z,42.50
2019-04-25T16:52:57.692Z,42.89
2019-04-25T16:54:50.381Z,43.37
2019-04-25T16:55:50.284Z,43.28
2019-04-25T16:57:43.008Z,43.28
2019-04-25T16:58:42.898Z,43.85
2019-04-25T17:00:36.234Z,43.68
2019-04-25T17:01:35.998Z,43.59
2019-04-25T17:03:29.909Z,43.01
2019-04-25T17:04:29.759Z,43.18
2019-04-25T17:06:20.764Z,43.76
2019-04-25T17:07:20.674Z,43.66
2019-04-25T17:09:13.372Z,43.57
2019-04-25T17:10:13.258Z,44.63
2019-04-25T17:12:05.938Z,44.82
2019-04-25T17:13:05.839Z,44.73
2019-04-25T17:14:58.547Z,45.28
2019-04-25T17:15:58.427Z,44.90
2019-04-25T17:17:51.114Z,45.48
2019-04-25T17:18:51.006Z,45.28
2019-04-25T17:20:43.710Z,45.48
2019-04-25T17:21:43.590Z,45.67
2019-04-25T17:23:36.998Z,46.42
2019-04-25T17:24:36.681Z,46.51
2019-04-25T17:26:28.886Z,47.00
2019-04-25T17:27:28.773Z,47.19
2019-04-25T17:29:21.454Z,47.55
2019-04-25T17:30:21.356Z,47.77
2019-04-25T17:32:14.060Z,47.94
2019-04-25T17:33:13.943Z,47.85
2019-04-25T17:35:06.629Z,47.85
2019-04-25T17:36:06.523Z,47.55
2019-04-25T17:37:59.235Z,47.27
2019-04-25T17:38:59.105Z,47.45
2019-04-25T17:40:51.797Z,47.65
2019-04-25T17:41:51.700Z,47.75
2019-04-25T17:43:44.396Z,48.42
2019-04-25T17:44:44.280Z,48.69
2019-04-25T17:46:36.990Z,48.59
2019-04-25T17:47:36.867Z,49.46
2019-04-25T17:49:29.584Z,48.81
2019-04-25T17:50:29.470Z,49.37
2019-04-25T17:52:22.155Z,49.46
2019-04-25T17:53:22.044Z,49.46
2019-04-25T17:55:14.755Z,50.04
2019-04-25T17:56:14.628Z,50.23
2019-04-25T17:58:07.394Z,50.52
2019-04-25T17:59:07.293Z,50.88
2019-04-25T18:01:00.006Z,50.98
2019-04-25T18:01:59.905Z,51.17
2019-04-25T18:03:52.589Z,51.36
2019-04-25T18:04:52.461Z,51.56
2019-04-25T18:06:45.156Z,51.26
2019-04-25T18:07:45.056Z,50.78
2019-04-25T18:09:38.627Z,50.69
2019-04-25T18:10:37.765Z,50.49
2019-04-25T18:12:30.317Z,50.88
2019-04-25T18:13:30.215Z,51.05
2019-04-25T18:15:22.930Z,50.95
2019-04-25T18:16:22.806Z,51.14
2019-04-25T18:18:15.494Z,52.25
2019-04-25T18:19:15.394Z,53.31
2019-04-25T18:21:08.242Z,54.82
2019-04-25T18:22:07.969Z,55.30
2019-04-25T18:24:00.657Z,56.62
2019-04-25T18:25:00.559Z,57.48
2019-04-25T18:26:53.321Z,57.93
2019-04-25T18:27:53.135Z,58.15
2019-04-25T18:29:46.322Z,58.61
2019-04-25T18:30:45.720Z,59.57
2019-04-25T18:32:39.165Z,59.57
2019-04-25T18:33:39.248Z,59.86
2019-04-25T18:35:30.982Z,60.31
2019-04-25T18:36:30.877Z,60.69
2019-04-25T18:38:23.573Z,61.55
2019-04-25T18:39:23.449Z,61.75
2019-04-25T18:41:16.143Z,62.19
2019-04-25T18:42:16.026Z,62.23
2019-04-25T18:44:08.720Z,62.29
2019-04-25T18:45:08.601Z,62.29
2019-04-25T18:47:01.280Z,62.77
2019-04-25T18:48:01.179Z,62.77
2019-04-25T18:49:53.882Z,63.16
2019-04-25T18:50:53.752Z,63.35
2019-04-25T18:52:47.135Z,63.16
2019-04-25T18:53:47.315Z,63.45
2019-04-25T18:55:39.033Z,63.25
2019-04-25T18:56:38.978Z,63.25
2019-04-25T18:58:31.604Z,63.73
2019-04-25T18:59:31.495Z,63.45
2019-04-25T19:01:24.217Z,63.54
2019-04-25T19:02:24.085Z,63.54
2019-04-25T19:04:16.758Z,63.54
2019-04-25T19:05:16.653Z,63.35
2019-04-25T19:07:09.346Z,63.64
2019-04-25T19:08:09.232Z,63.70
2019-04-25T19:10:01.904Z,63.51
2019-04-25T19:11:01.867Z,64.02
2019-04-25T19:12:54.502Z,63.99
2019-04-25T19:13:54.382Z,63.99
2019-04-25T19:15:47.249Z,63.89
2019-04-25T19:16:47.647Z,64.18
2019-04-25T19:18:39.927Z,64.37
2019-04-25T19:19:39.805Z,64.28
2019-04-25T19:21:33.370Z,64.18
2019-04-25T19:22:32.118Z,64.18
2019-04-25T19:24:24.812Z,64.76
2019-04-25T19:25:24.690Z,64.95
2019-04-25T19:27:23.652Z,64.66
2019-04-25T19:28:17.272Z,64.85
2019-04-25T19:30:09.983Z,64.66
2019-04-25T19:31:09.869Z,64.37
2019-04-25T19:33:02.572Z,64.18
2019-04-25T19:34:02.445Z,64.09
2019-04-25T19:35:55.120Z,64.28
2019-04-25T19:36:55.017Z,64.09
2019-04-25T19:38:47.992Z,64.28
2019-04-25T19:39:47.590Z,64.66
2019-04-25T19:41:41.471Z,64.37
2019-04-25T19:42:41.098Z,64.66
2019-04-25T19:44:32.859Z,64.76
2019-04-25T19:45:33.406Z,64.95
2019-04-25T19:47:25.421Z,65.23
2019-04-25T19:48:25.317Z,65.14
2019-04-25T19:50:18.011Z,65.14
2019-04-25T19:51:17.886Z,65.14
2019-04-25T19:53:10.585Z,65.23
2019-04-25T19:54:10.482Z,65.43
2019-04-25T19:56:03.170Z,65.81
2019-04-25T19:57:03.057Z,65.62
2019-04-25T19:58:55.741Z,65.97
2019-04-25T19:59:55.631Z,65.72
2019-04-25T20:01:48.326Z,66.35
2019-04-25T20:02:48.708Z,66.16
2019-04-25T20:04:41.832Z,66.26
2019-04-25T20:05:41.912Z,65.97
2019-04-25T20:07:33.566Z,65.68
2019-04-25T20:08:33.445Z,65.68
2019-04-25T20:10:26.150Z,65.97
2019-04-25T20:11:26.019Z,65.97
2019-04-25T20:13:18.726Z,66.45
2019-04-25T20:14:18.617Z,65.97
2019-04-25T20:16:11.336Z,65.78
2019-04-25T20:17:11.193Z,66.26
2019-04-25T20:19:03.865Z,66.06
2019-04-25T20:20:03.764Z,66.26
2019-04-25T20:21:56.461Z,66.26
2019-04-25T20:22:56.334Z,66.06
2019-04-25T20:24:49.037Z,66.42
2019-04-25T20:25:48.909Z,66.32
2019-04-25T20:27:41.615Z,66.71
2019-04-25T20:28:41.499Z,66.61
2019-04-25T20:30:34.182Z,67.18
2019-04-25T20:31:34.063Z,67.09
2019-04-25T20:33:26.763Z,68.05
2019-04-25T20:34:26.639Z,67.95
2019-04-25T20:36:19.315Z,69.07
2019-04-25T20:37:19.205Z,69.01
2019-04-25T20:39:11.908Z,69.26
2019-04-25T20:40:11.786Z,69.93
2019-04-25T20:42:04.461Z,70.79
2019-04-25T20:43:04.353Z,70.70
2019-04-25T20:44:57.055Z,71.84
2019-04-25T20:45:56.929Z,72.03
2019-04-25T20:47:50.042Z,72.80
2019-04-25T20:48:50.166Z,73.19
2019-04-25T20:50:42.207Z,73.57
2019-04-25T20:51:42.081Z,73.76
2019-04-25T20:53:34.757Z,73.66
2019-04-25T20:54:34.644Z,73.86
2019-04-25T20:56:27.338Z,74.33
2019-04-25T20:57:27.213Z,74.62
2019-04-25T20:59:19.945Z,75.16
2019-04-25T21:00:19.803Z,75.83
2019-04-25T21:02:12.489Z,75.54
2019-04-25T21:03:12.366Z,75.83
2019-04-25T21:05:05.039Z,76.12
2019-04-25T21:06:04.932Z,76.40
2019-04-25T21:07:57.646Z,76.40
2019-04-25T21:08:57.627Z,75.87
2019-04-25T21:10:50.688Z,76.31
2019-04-25T21:11:50.098Z,76.98
2019-04-25T21:13:42.790Z,76.60
2019-04-25T21:14:42.666Z,77.26
2019-04-25T21:16:35.346Z,78.03
2019-04-25T21:17:35.240Z,78.22
2019-04-25T21:19:27.944Z,79.47
2019-04-25T21:20:27.818Z,79.57
2019-04-25T21:22:20.491Z,79.57
2019-04-25T21:23:20.384Z,79.66
2019-04-25T21:25:13.100Z,80.58
2019-04-25T21:26:12.967Z,80.38
2019-04-25T21:28:05.647Z,80.19
2019-04-25T21:29:05.537Z,80.48
2019-04-25T21:30:58.900Z,80.58
2019-04-25T21:31:58.854Z,80.87
2019-04-25T21:33:50.791Z,81.54
2019-04-25T21:34:50.737Z,81.54
2019-04-25T21:36:43.419Z,80.77
2019-04-25T21:37:43.284Z,81.34
2019-04-25T21:39:35.977Z,81.44
2019-04-25T21:40:35.855Z,80.87
2019-04-25T21:42:28.544Z,80.19
2019-04-25T21:43:28.421Z,80.38
2019-04-25T21:45:21.153Z,80.00
2019-04-25T21:46:21.041Z,80.19
2019-04-25T21:48:13.737Z,80.10
2019-04-25T21:49:13.609Z,79.72
2019-04-25T21:51:06.311Z,79.62
2019-04-25T21:52:06.197Z,79.62
2019-04-25T21:53:59.293Z,79.91
2019-04-25T21:54:59.553Z,80.10
2019-04-25T21:56:51.478Z,80.87
2019-04-25T21:57:51.385Z,81.34
2019-04-25T21:59:44.061Z,82.20
